Time;durP1;ratioP1;P1;durP2;ratioP2;P2;SDS_P1;SDS_P2;PMS_P1;PMS_P2;Temp;Humidity;BMP_temperature;BMP_pressure;BME280_temperature;BME280_humidity;BME280_pressure;Samples;Min_cycle;Max_cycle;Signal;HPM_P1;HPM_P2
2022/09/25 00:01:07;;;;;;;15.68;3.65;;;5.90;99.90;;;;;;5074324;28;20053;-24
2022/09/25 00:03:33;;;;;;;12.88;3.17;;;5.90;99.90;;;;;;5073640;28;20056;-24
2022/09/25 00:06:03;;;;;;;10.07;3.25;;;5.90;99.90;;;;;;5072635;28;20098;-24
2022/09/25 00:08:29;;;;;;;10.27;3.33;;;5.90;99.90;;;;;;5073685;28;20139;-23
2022/09/25 00:10:55;;;;;;;14.02;4.68;;;5.80;99.90;;;;;;5074176;28;20131;-24
2022/09/25 00:13:21;;;;;;;12.38;3.70;;;5.90;99.90;;;;;;5073517;28;20076;-24
2022/09/25 00:15:52;;;;;;;15.77;4.40;;;5.90;99.90;;;;;;5073490;28;20098;-24
2022/09/25 00:21:05;;;;;;;15.90;4.40;;;5.90;99.90;;;;;;5073560;28;20056;-24
2022/09/25 00:23:31;;;;;;;17.05;4.40;;;5.70;99.90;;;;;;5056083;28;20057;-24
2022/09/25 00:25:58;;;;;;;20.23;5.32;;;5.80;99.90;;;;;;5073443;28;20040;-24
2022/09/25 00:28:26;;;;;;;25.90;3.97;;;5.80;99.90;;;;;;5073427;28;20060;-24
2022/09/25 00:30:52;;;;;;;18.77;3.60;;;5.70;99.90;;;;;;5073401;28;20045;-24
2022/09/25 00:33:18;;;;;;;14.55;4.40;;;5.70;99.90;;;;;;5073010;28;20422;-24
2022/09/25 00:35:43;;;;;;;29.60;3.58;;;5.70;99.90;;;;;;5073543;28;20044;-23
2022/09/25 00:38:09;;;;;;;8.70;3.05;;;6.00;99.90;;;;;;5072644;28;20040;-22
2022/09/25 00:40:35;;;;;;;9.15;2.67;;;6.10;99.90;;;;;;5072155;28;20056;-22
2022/09/25 00:43:00;;;;;;;9.52;3.10;;;6.20;99.90;;;;;;5073324;28;20049;-22
2022/09/25 00:45:26;;;;;;;12.15;3.17;;;6.10;99.90;;;;;;5055661;28;20138;-22
2022/09/25 00:47:57;;;;;;;9.25;2.95;;;6.20;99.90;;;;;;5073192;28;20501;-22
2022/09/25 00:50:37;;;;;;;15.05;3.80;;;6.50;99.90;;;;;;5072432;28;20162;-23
2022/09/25 00:53:12;;;;;;;12.27;4.05;;;6.80;99.90;;;;;;5055859;28;20387;-22
2022/09/25 00:55:40;;;;;;;9.18;3.13;;;7.10;99.90;;;;;;5072191;28;20048;-23
2022/09/25 00:58:07;;;;;;;7.88;2.83;;;7.10;99.90;;;;;;5073129;28;20044;-22
2022/09/25 01:00:33;;;;;;;9.57;3.25;;;7.10;99.90;;;;;;5073837;28;20127;-22
2022/09/25 01:02:59;;;;;;;7.55;2.88;;;6.90;99.90;;;;;;5076859;28;20480;-22
2022/09/25 01:05:29;;;;;;;7.63;2.78;;;6.90;99.90;;;;;;5077395;28;20063;-22
2022/09/25 01:07:58;;;;;;;13.10;3.40;;;6.70;99.90;;;;;;5077569;28;20048;-22
2022/09/25 01:10:25;;;;;;;13.20;3.90;;;6.60;99.90;;;;;;5075447;28;20133;-23
2022/09/25 01:12:54;;;;;;;9.93;3.47;;;6.60;99.90;;;;;;5077475;28;20045;-22
2022/09/25 01:15:27;;;;;;;13.38;3.30;;;6.40;99.90;;;;;;5075537;28;20146;-23
2022/09/25 01:17:52;;;;;;;9.52;3.72;;;6.20;99.90;;;;;;5042122;28;20059;-22
2022/09/25 01:20:24;;;;;;;17.77;4.63;;;6.40;99.90;;;;;;5076263;28;20048;-22
2022/09/25 01:23:23;;;;;;;10.40;4.28;;;6.10;99.90;;;;;;5075494;28;20044;-22
2022/09/25 01:26:10;;;;;;;16.35;3.90;;;6.40;99.90;;;;;;5076444;28;20494;-22
2022/09/25 01:28:45;;;;;;;15.73;4.55;;;6.30;99.90;;;;;;5076020;28;20458;-22
2022/09/25 01:31:20;;;;;;;18.05;4.47;;;6.40;99.90;;;;;;5076351;28;20131;-21
2022/09/25 01:33:56;;;;;;;12.13;4.75;;;6.50;99.90;;;;;;5076370;28;20060;-21
2022/09/25 01:36:28;;;;;;;16.52;4.40;;;6.20;99.90;;;;;;5075886;28;20109;-21
2022/09/25 01:39:31;;;;;;;13.10;4.20;;;6.20;99.90;;;;;;5076244;28;20051;-21
2022/09/25 01:42:17;;;;;;;14.20;4.05;;;6.40;99.90;;;;;;5053819;28;20053;-21
2022/09/25 01:44:47;;;;;;;15.90;4.63;;;6.00;99.90;;;;;;5075020;28;20556;-21
2022/09/25 01:47:21;;;;;;;17.63;4.80;;;6.20;99.90;;;;;;5076065;28;20048;-21
2022/09/25 01:49:56;;;;;;;7.50;3.33;;;6.10;99.90;;;;;;5076052;28;20097;-21
2022/09/25 01:52:29;;;;;;;10.57;3.42;;;5.80;99.90;;;;;;5076565;28;20136;-21
2022/09/25 01:55:04;;;;;;;11.48;3.33;;;6.00;99.90;;;;;;5076222;28;20124;-21
2022/09/25 01:57:43;;;;;;;13.27;3.83;;;5.80;99.90;;;;;;5075927;28;20051;-22
2022/09/25 02:00:17;;;;;;;10.68;3.45;;;5.70;99.90;;;;;;5075897;28;20078;-21
2022/09/25 02:02:56;;;;;;;9.65;4.10;;;5.50;99.90;;;;;;5076375;28;20154;-21
2022/09/25 02:05:30;;;;;;;16.73;3.97;;;5.60;99.90;;;;;;5075820;28;20076;-21
2022/09/25 02:08:07;;;;;;;13.50;4.22;;;5.60;99.90;;;;;;5075735;28;20087;-21
2022/09/25 02:10:43;;;;;;;11.93;4.60;;;5.50;99.90;;;;;;5076320;28;20086;-21
2022/09/25 02:13:13;;;;;;;13.55;4.43;;;5.60;99.90;;;;;;5074683;28;20059;-21
2022/09/25 02:15:58;;;;;;;15.52;3.95;;;5.60;99.90;;;;;;5074372;28;20048;-22
2022/09/25 02:21:38;;;;;;;13.48;4.93;;;5.50;99.90;;;;;;5075678;28;20394;-21
2022/09/25 02:24:23;;;;;;;11.75;3.67;;;5.40;99.90;;;;;;5076225;28;20052;-21
2022/09/25 02:26:50;;;;;;;12.55;4.00;;;5.30;99.90;;;;;;5074099;28;20084;-21
2022/09/25 02:29:16;;;;;;;15.77;4.18;;;5.30;99.90;;;;;;5076051;28;20103;-22
2022/09/25 02:31:54;;;;;;;13.50;3.95;;;5.30;99.90;;;;;;5075187;28;20041;-22
2022/09/25 02:34:21;;;;;;;9.02;3.53;;;5.30;99.90;;;;;;5075380;28;20063;-22
2022/09/25 02:36:47;;;;;;;9.98;3.47;;;5.10;99.90;;;;;;5075054;28;20040;-22
2022/09/25 02:39:16;;;;;;;8.60;3.47;;;5.10;99.90;;;;;;5075007;28;20098;-22
2022/09/25 02:42:06;;;;;;;10.27;4.30;;;5.20;99.90;;;;;;5057907;28;20485;-22
2022/09/25 02:44:51;;;;;;;10.98;3.58;;;5.10;99.90;;;;;;5057069;28;20048;-23
2022/09/25 02:47:53;;;;;;;9.45;3.55;;;5.00;99.90;;;;;;5075417;28;20056;-23
2022/09/25 02:50:26;;;;;;;9.60;3.60;;;5.00;99.90;;;;;;5075270;28;20406;-23
2022/09/25 02:53:14;;;;;;;9.05;3.53;;;5.10;99.90;;;;;;5074486;28;20479;-23
2022/09/25 02:55:50;;;;;;;10.30;3.80;;;5.20;99.90;;;;;;5074067;28;20037;-22
2022/09/25 02:58:26;;;;;;;10.40;3.78;;;5.30;99.90;;;;;;5074703;28;20048;-23
2022/09/25 03:00:54;;;;;;;12.45;4.60;;;5.30;99.90;;;;;;5075454;28;20110;-23
2022/09/25 03:03:24;;;;;;;13.60;5.20;;;5.20;99.90;;;;;;5075066;28;20131;-23
2022/09/25 03:05:53;;;;;;;20.75;6.63;;;5.30;99.90;;;;;;5075015;28;20037;-23
2022/09/25 03:08:40;;;;;;;19.23;6.05;;;5.70;99.90;;;;;;5075261;28;20105;-22
2022/09/25 03:11:15;;;;;;;19.00;6.60;;;5.80;99.90;;;;;;5074446;28;20084;-22
2022/09/25 03:13:42;;;;;;;19.15;5.85;;;5.90;99.90;;;;;;5074074;28;20505;-22
2022/09/25 03:16:19;;;;;;;10.90;4.95;;;5.90;99.90;;;;;;5073940;28;20044;-22
2022/09/25 03:18:45;;;;;;;11.20;5.30;;;6.00;99.90;;;;;;5074902;28;20052;-22
2022/09/25 03:21:11;;;;;;;14.18;6.10;;;6.00;99.90;;;;;;5074064;28;20120;-22
2022/09/25 03:23:37;;;;;;;15.75;4.90;;;6.20;99.90;;;;;;5056729;28;20087;-22
2022/09/25 03:26:06;;;;;;;15.73;5.03;;;6.10;99.90;;;;;;5073847;28;20075;-22
2022/09/25 03:28:31;;;;;;;14.18;5.80;;;6.20;99.90;;;;;;5074095;28;20044;-22
2022/09/25 03:31:03;;;;;;;10.32;4.90;;;6.30;99.90;;;;;;5074050;28;20048;-22
2022/09/25 03:33:36;;;;;;;12.48;4.45;;;6.10;99.90;;;;;;5073713;28;20057;-22
2022/09/25 03:36:05;;;;;;;10.55;4.00;;;6.10;99.90;;;;;;5074020;28;20051;-22
2022/09/25 03:38:31;;;;;;;14.07;5.28;;;6.00;99.90;;;;;;5073970;28;20041;-22
2022/09/25 03:40:57;;;;;;;18.25;4.78;;;5.90;99.90;;;;;;5074236;28;20518;-22
2022/09/25 03:43:23;;;;;;;10.93;4.63;;;5.80;99.90;;;;;;5056584;28;20135;-22
2022/09/25 03:45:49;;;;;;;8.45;4.72;;;5.80;99.90;;;;;;5073893;28;20050;-22
2022/09/25 03:48:14;;;;;;;24.88;5.10;;;5.80;99.90;;;;;;5072678;28;20106;-22
2022/09/25 03:50:40;;;;;;;9.27;4.20;;;5.60;99.90;;;;;;5073755;28;20405;-22
2022/09/25 03:53:06;;;;;;;16.73;4.35;;;5.50;99.90;;;;;;5073783;28;20048;-22
2022/09/25 03:55:32;;;;;;;12.65;4.82;;;5.40;99.90;;;;;;5073693;28;20051;-22
2022/09/25 03:57:58;;;;;;;14.00;5.10;;;5.40;99.90;;;;;;5074359;28;20048;-22
2022/09/25 04:00:24;;;;;;;15.43;4.85;;;5.50;99.90;;;;;;5073367;28;20048;-22
2022/09/25 04:02:49;;;;;;;13.02;4.90;;;5.40;99.90;;;;;;5073688;28;20390;-22
2022/09/25 04:05:20;;;;;;;14.68;4.78;;;5.40;99.90;;;;;;5072669;28;20084;-22
2022/09/25 04:07:46;;;;;;;15.52;4.88;;;5.40;99.90;;;;;;5073405;28;20491;-22
2022/09/25 04:10:13;;;;;;;15.85;5.50;;;5.30;99.90;;;;;;5073626;28;20447;-22
2022/09/25 04:12:39;;;;;;;16.48;5.75;;;5.20;99.90;;;;;;5073583;28;20089;-22
2022/09/25 04:15:05;;;;;;;72.65;7.28;;;5.30;99.90;;;;;;5073464;28;20497;-22
2022/09/25 04:17:31;;;;;;;11.90;5.30;;;5.30;99.90;;;;;;5073559;28;20045;-22
2022/09/25 04:19:56;;;;;;;12.85;4.53;;;5.10;99.90;;;;;;5073497;28;20115;-22
2022/09/25 04:22:23;;;;;;;11.43;4.07;;;5.00;99.90;;;;;;5073478;28;20048;-22
2022/09/25 04:24:49;;;;;;;9.60;4.00;;;4.90;99.90;;;;;;5072767;28;20053;-22
2022/09/25 04:27:21;;;;;;;8.88;3.60;;;4.90;99.90;;;;;;5073413;28;20048;-22
2022/09/25 04:29:47;;;;;;;10.68;3.80;;;4.90;99.90;;;;;;5073488;28;20045;-22
2022/09/25 04:35:12;;;;;;;11.40;4.28;;;5.00;99.90;;;;;;5061282;28;20052;-22
2022/09/25 04:37:38;;;;;;;13.07;4.53;;;5.10;99.90;;;;;;5077376;28;20445;-22
2022/09/25 04:40:04;;;;;;;13.27;4.28;;;5.10;99.90;;;;;;5077301;28;20051;-22
2022/09/25 04:42:30;;;;;;;14.20;4.35;;;5.10;99.90;;;;;;5059318;28;20107;-22
2022/09/25 04:44:56;;;;;;;11.48;4.10;;;5.10;99.90;;;;;;5077219;28;20487;-22
2022/09/25 04:47:24;;;;;;;9.07;3.95;;;5.10;99.90;;;;;;5060421;28;20127;-22
2022/09/25 04:49:51;;;;;;;8.18;4.18;;;5.20;99.90;;;;;;5077096;28;20048;-22
2022/09/25 04:52:18;;;;;;;11.10;3.72;;;5.20;99.90;;;;;;5076942;28;20052;-23
2022/09/25 04:54:45;;;;;;;9.60;3.63;;;5.20;99.90;;;;;;5075890;28;20049;-22
2022/09/25 04:57:20;;;;;;;8.20;4.15;;;5.20;99.90;;;;;;5076989;28;19920;-22
2022/09/25 04:59:47;;;;;;;8.63;3.53;;;5.30;99.90;;;;;;5076915;28;20482;-23
2022/09/25 05:02:13;;;;;;;7.88;4.00;;;5.30;99.90;;;;;;5075357;28;20047;-23
2022/09/25 05:04:38;;;;;;;11.50;4.60;;;5.30;99.90;;;;;;5077381;28;20048;-22
2022/09/25 05:07:04;;;;;;;8.57;3.60;;;5.30;99.90;;;;;;5077412;28;20534;-23
2022/09/25 05:09:30;;;;;;;6.65;2.67;;;5.20;99.90;;;;;;5076727;28;20040;-22
2022/09/25 05:11:56;;;;;;;7.68;3.13;;;5.10;99.90;;;;;;5075535;28;20127;-22
2022/09/25 05:14:22;;;;;;;10.60;2.80;;;5.10;99.90;;;;;;5076679;28;20075;-23
2022/09/25 05:16:48;;;;;;;11.82;3.72;;;4.90;99.90;;;;;;5077381;28;20076;-22
2022/09/25 05:19:14;;;;;;;11.40;4.15;;;4.90;99.90;;;;;;5077154;28;20049;-23
2022/09/25 05:21:41;;;;;;;12.52;5.55;;;5.00;99.90;;;;;;5075406;28;20071;-23
2022/09/25 05:24:07;;;;;;;10.75;4.55;;;5.00;99.90;;;;;;5075277;28;20044;-23
2022/09/25 05:26:34;;;;;;;11.85;4.32;;;5.20;99.90;;;;;;5075479;28;20049;-23
2022/09/25 05:29:00;;;;;;;9.75;4.40;;;5.30;99.90;;;;;;5076413;28;20409;-23
2022/09/25 05:31:26;;;;;;;15.50;4.35;;;5.30;99.90;;;;;;5076262;28;20106;-22
2022/09/25 05:33:53;;;;;;;9.93;4.88;;;5.30;99.90;;;;;;5074931;28;20056;-22
2022/09/25 05:36:19;;;;;;;16.23;4.57;;;5.30;99.90;;;;;;5075096;28;20056;-23
2022/09/25 05:38:45;;;;;;;16.00;5.20;;;5.20;99.90;;;;;;5075600;28;20044;-23
2022/09/25 05:41:11;;;;;;;13.48;5.00;;;5.30;99.90;;;;;;5075224;28;20059;-23
2022/09/25 05:43:40;;;;;;;12.55;5.15;;;5.20;99.90;;;;;;5075215;28;20041;-23
2022/09/25 05:46:06;;;;;;;12.55;5.60;;;5.40;99.90;;;;;;5076016;28;20051;-22
2022/09/25 05:48:32;;;;;;;18.73;6.00;;;5.30;99.90;;;;;;5074862;28;20048;-23
2022/09/25 05:50:58;;;;;;;11.20;4.40;;;5.30;99.90;;;;;;5076482;28;20048;-23
2022/09/25 05:53:25;;;;;;;17.80;5.20;;;5.20;99.90;;;;;;5076248;28;20048;-23
2022/09/25 05:55:57;;;;;;;17.95;5.57;;;5.30;99.90;;;;;;5075841;28;20044;-23
2022/09/25 05:58:23;;;;;;;15.95;5.55;;;5.30;99.90;;;;;;5075295;28;20409;-23
2022/09/25 06:00:49;;;;;;;12.65;5.72;;;5.20;99.90;;;;;;5075835;28;20410;-23
2022/09/25 06:03:16;;;;;;;17.98;6.32;;;5.50;99.90;;;;;;5075790;28;20045;-23
2022/09/25 06:05:43;;;;;;;15.48;5.22;;;5.50;99.90;;;;;;5075760;28;20390;-23
2022/09/25 06:08:10;;;;;;;20.17;5.78;;;5.40;99.90;;;;;;5075731;28;20051;-23
2022/09/25 06:10:35;;;;;;;14.93;5.78;;;5.60;99.90;;;;;;5075633;28;20049;-23
2022/09/25 06:13:03;;;;;;;15.88;5.30;;;5.50;99.90;;;;;;5075829;28;20071;-22
2022/09/25 06:15:37;;;;;;;16.77;5.63;;;5.70;99.90;;;;;;5075486;28;20045;-23
2022/09/25 06:18:06;;;;;;;;;;;5.90;99.90;;;;;;5075976;28;20059;-22
2022/09/25 06:20:31;;;;;;;13.90;5.50;;;5.80;99.90;;;;;;5075396;28;19927;-23
2022/09/25 06:22:59;;;;;;;14.38;5.07;;;5.90;99.90;;;;;;5074766;28;20048;-23
2022/09/25 06:25:28;;;;;;;15.88;6.20;;;6.00;99.90;;;;;;5074419;28;20145;-23
2022/09/25 06:27:59;;;;;;;16.60;5.90;;;6.20;99.90;;;;;;5075295;28;20402;-23
2022/09/25 06:30:29;;;;;;;21.13;6.50;;;6.10;99.90;;;;;;5075245;28;20048;-23
2022/09/25 06:33:03;;;;;;;13.68;5.95;;;6.20;99.90;;;;;;5074953;28;20096;-23
2022/09/25 06:35:29;;;;;;;12.85;5.80;;;6.30;99.90;;;;;;5075368;28;20142;-23
2022/09/25 06:37:59;;;;;;;16.27;5.82;;;6.50;99.90;;;;;;5075110;28;20076;-23
2022/09/25 06:40:27;;;;;;;8.80;4.80;;;6.60;99.90;;;;;;5075304;28;20045;-23
2022/09/25 06:42:56;;;;;;;10.18;4.78;;;6.80;99.90;;;;;;5074961;28;20049;-23
2022/09/25 06:45:22;;;;;;;14.52;5.78;;;6.90;99.90;;;;;;5075467;28;20040;-23
2022/09/25 06:47:47;;;;;;;16.25;6.10;;;6.90;99.90;;;;;;5074886;28;20053;-23
2022/09/25 06:50:13;;;;;;;16.90;6.38;;;7.30;99.90;;;;;;5073834;28;20532;-23
2022/09/25 06:52:45;;;;;;;14.48;5.93;;;7.30;99.90;;;;;;5074805;28;20086;-23
2022/09/25 06:55:11;;;;;;;14.57;5.93;;;7.60;99.90;;;;;;5074653;28;20094;-24
2022/09/25 06:57:37;;;;;;;14.65;6.25;;;7.60;99.90;;;;;;5074090;28;20052;-24
2022/09/25 07:00:04;;;;;;;11.77;6.57;;;7.80;99.90;;;;;;5073069;28;20100;-24
2022/09/25 07:05:17;;;;;;;16.30;5.95;;;8.10;99.90;;;;;;5074601;28;20046;-24
2022/09/25 07:07:43;;;;;;;13.80;6.72;;;8.50;99.90;;;;;;5074526;28;20123;-24
2022/09/25 07:10:10;;;;;;;18.02;6.43;;;8.80;99.90;;;;;;5075046;28;20088;-24
2022/09/25 07:12:37;;;;;;;15.82;6.38;;;9.00;99.90;;;;;;5073161;28;20074;-25
2022/09/25 07:15:03;;;;;;;15.02;6.60;;;9.70;99.90;;;;;;5074330;28;20052;-25
2022/09/25 07:17:29;;;;;;;17.05;6.40;;;10.00;99.90;;;;;;5074601;28;20091;-25
2022/09/25 07:19:55;;;;;;;24.63;6.07;;;10.00;99.90;;;;;;5074256;28;20084;-25
2022/09/25 07:22:20;;;;;;;18.48;6.65;;;10.00;99.90;;;;;;5074258;28;20052;-25
2022/09/25 07:24:46;;;;;;;10.93;5.30;;;10.30;99.90;;;;;;5074497;28;20041;-25
2022/09/25 07:27:12;;;;;;;13.57;5.90;;;10.10;99.90;;;;;;5073025;28;20040;-25
2022/09/25 07:29:37;;;;;;;12.48;5.78;;;10.40;99.90;;;;;;5074136;28;20131;-25
2022/09/25 07:32:03;;;;;;;12.98;5.40;;;10.60;99.90;;;;;;5074805;28;20481;-25
2022/09/25 07:34:29;;;;;;;11.85;4.75;;;10.70;99.90;;;;;;5074638;28;20065;-25
2022/09/25 07:36:56;;;;;;;17.55;4.97;;;10.50;99.90;;;;;;5073638;28;20079;-25
2022/09/25 07:39:22;;;;;;;9.73;3.85;;;10.90;99.90;;;;;;5072996;28;20087;-25
2022/09/25 07:41:48;;;;;;;15.43;5.07;;;10.90;99.90;;;;;;5073986;28;20056;-25
2022/09/25 07:44:13;;;;;;;16.27;4.88;;;11.00;99.90;;;;;;5073912;28;20131;-25
2022/09/25 07:46:42;;;;;;;7.93;4.28;;;10.70;99.90;;;;;;5073871;28;20040;-25
2022/09/25 07:49:07;;;;;;;10.52;3.33;;;10.90;99.90;;;;;;5074659;28;20425;-25
2022/09/25 07:51:33;;;;;;;16.10;3.75;;;11.00;99.90;;;;;;5074304;28;20127;-25
2022/09/25 07:54:00;;;;;;;14.05;4.75;;;10.80;99.90;;;;;;5073845;28;20382;-26
2022/09/25 07:56:26;;;;;;;13.57;3.83;;;10.80;99.90;;;;;;5073730;28;20080;-26
2022/09/25 07:58:53;;;;;;;10.35;4.20;;;10.90;99.90;;;;;;5073943;28;20466;-27
2022/09/25 08:01:18;;;;;;;43.90;35.28;;;11.20;99.90;;;;;;5073640;28;20505;-26
2022/09/25 08:03:44;;;;;;;28.52;18.48;;;11.20;99.90;;;;;;5073695;28;20040;-26
2022/09/25 08:06:12;;;;;;;10.60;4.20;;;10.90;99.90;;;;;;5073929;28;20040;-25
2022/09/25 08:08:41;;;;;;;9.77;3.88;;;11.00;99.90;;;;;;5074451;28;20045;-25
2022/09/25 08:11:12;;;;;;;8.88;3.38;;;11.10;99.90;;;;;;5072803;28;20053;-26
2022/09/25 08:13:40;;;;;;;12.50;3.20;;;11.40;99.90;;;;;;5074231;28;20052;-26
2022/09/25 08:16:14;;;;;;;14.43;3.35;;;11.30;99.90;;;;;;5073528;28;20390;-26
2022/09/25 08:18:42;;;;;;;10.55;3.40;;;11.20;99.90;;;;;;5074431;28;20173;-26
2022/09/25 08:21:12;;;;;;;8.10;3.30;;;11.20;99.90;;;;;;5072559;28;20486;-26
2022/09/25 08:23:39;;;;;;;9.45;3.63;;;11.60;99.90;;;;;;5074382;28;20106;-26
2022/09/25 08:26:05;;;;;;;8.85;2.70;;;11.10;99.90;;;;;;5074032;28;20036;-26
2022/09/25 08:28:31;;;;;;;12.57;3.17;;;11.10;99.90;;;;;;5055513;28;20135;-26
2022/09/25 08:31:03;;;;;;;12.77;3.33;;;11.20;99.90;;;;;;5073784;28;20107;-26
2022/09/25 08:33:33;;;;;;;7.05;2.83;;;11.30;99.90;;;;;;5073977;28;20064;-26
2022/09/25 08:36:01;;;;;;;11.85;2.22;;;11.10;99.90;;;;;;5073320;28;20411;-26
2022/09/25 08:38:28;;;;;;;7.15;2.50;;;11.10;99.90;;;;;;5073331;28;20059;-26
2022/09/25 08:41:06;;;;;;;5.72;1.90;;;11.60;99.90;;;;;;5055468;28;20494;-26
2022/09/25 08:43:36;;;;;;;6.45;1.23;;;11.70;99.90;;;;;;5073964;28;20051;-27
2022/09/25 08:49:05;;;;;;;8.50;1.38;;;12.00;99.90;;;;;;5073297;28;20059;-26
2022/09/25 08:51:52;;;;;;;12.80;1.25;;;12.10;99.90;;;;;;5073175;28;20040;-27
2022/09/25 08:54:23;;;;;;;4.43;1.10;;;12.30;99.90;;;;;;5073331;28;20087;-26
2022/09/25 08:56:52;;;;;;;7.65;1.80;;;12.40;99.90;;;;;;5072295;28;20120;-27
2022/09/25 08:59:38;;;;;;;6.43;1.85;;;12.70;99.90;;;;;;5073387;28;20052;-26
2022/09/25 09:02:35;;;;;;;6.88;1.35;;;12.90;99.90;;;;;;5073190;28;20127;-27
2022/09/25 09:05:01;;;;;;;11.15;1.20;;;13.30;99.90;;;;;;5073709;28;20048;-27
2022/09/25 09:07:39;;;;;;;4.20;0.98;;;13.60;99.90;;;;;;5073106;28;20479;-27
2022/09/25 09:10:23;;;;;;;8.57;1.70;;;;;;;;;;5073089;28;20044;-27
2022/09/25 09:12:53;;;;;;;4.68;0.52;;;14.90;99.90;;;;;;5073111;28;20478;-26
2022/09/25 09:15:45;;;;;;;6.80;0.88;;;15.50;99.90;;;;;;5072952;28;20041;-26
2022/09/25 09:18:23;;;;;;;8.95;1.15;;;15.80;99.90;;;;;;5072712;28;20406;-27
2022/09/25 09:20:55;;;;;;;7.85;1.13;;;17.00;99.90;;;;;;5073026;28;20132;-27
2022/09/25 09:23:33;;;;;;;3.92;1.33;;;18.00;99.90;;;;;;5076456;28;20045;-27
2022/09/25 09:26:15;;;;;;;4.43;0.70;;;18.90;99.90;;;;;;5075979;28;20049;-27
2022/09/25 09:28:43;;;;;;;3.67;0.60;;;18.80;99.90;;;;;;5077305;28;20080;-27
2022/09/25 09:31:30;;;;;;;3.90;0.88;;;18.70;99.90;;;;;;5076623;28;20552;-27
2022/09/25 09:34:32;;;;;;;2.58;0.52;;;18.60;99.90;;;;;;5075404;28;20132;-27
2022/09/25 09:37:19;;;;;;;2.97;0.55;;;17.90;99.90;;;;;;5076743;28;20058;-27
2022/09/25 09:39:58;;;;;;;4.03;0.77;;;17.90;99.90;;;;;;5076187;28;20052;-27
2022/09/25 09:42:32;;;;;;;6.38;1.52;;;;;;;;;;5077036;28;20044;-27
2022/09/25 09:45:16;;;;;;;5.10;1.67;;;19.30;90.70;;;;;;5076020;28;20073;-27
2022/09/25 09:48:05;;;;;;;3.60;0.70;;;19.70;1.00;;;;;;5076141;28;20044;-28
2022/09/25 09:50:41;;;;;;;4.00;0.60;;;20.10;1.00;;;;;;5075949;28;20127;-28
2022/09/25 09:53:33;;;;;;;2.85;0.63;;;19.50;1.00;;;;;;5076073;28;20048;-27
2022/09/25 09:56:11;;;;;;;3.17;0.45;;;19.00;75.20;;;;;;5064473;28;20143;-27
2022/09/25 09:58:56;;;;;;;2.95;0.60;;;18.50;63.10;;;;;;5076535;28;20395;-27
2022/09/25 10:01:32;;;;;;;3.47;0.57;;;18.10;1.00;;;;;;5075577;28;20524;-26
2022/09/25 10:04:08;;;;;;;3.22;0.35;;;17.50;1.00;;;;;;5075465;28;20066;-26
2022/09/25 10:06:37;;;;;;;1.98;0.30;;;17.40;8.80;;;;;;5075778;28;20564;-27
2022/09/25 10:09:04;;;;;;;2.20;0.68;;;17.20;1.00;;;;;;5076524;28;20063;-27
2022/09/25 10:11:31;;;;;;;0.75;0.63;;;17.20;1.00;;;;;;5075708;28;20036;-27
2022/09/25 10:14:00;;;;;;;0.60;0.20;;;17.30;1.00;;;;;;5075803;28;20494;-27
2022/09/25 10:16:27;;;;;;;1.63;0.10;;;17.50;99.90;;;;;;5075521;28;20041;-27
2022/09/25 10:19:00;;;;;;;1.27;0.20;;;17.70;99.90;;;;;;5075461;28;20131;-27
2022/09/25 10:21:36;;;;;;;4.07;0.10;;;17.90;99.90;;;;;;5075468;28;20040;-27
2022/09/25 10:24:02;;;;;;;1.05;0.20;;;17.80;99.90;;;;;;5075410;28;20105;-27
2022/09/25 10:26:38;;;;;;;1.60;0.20;;;17.70;99.90;;;;;;5075293;28;20048;-27
2022/09/25 10:29:22;;;;;;;1.10;0.55;;;17.40;1.00;;;;;;5075552;28;20468;-27
2022/09/25 10:31:56;;;;;;;1.88;0.20;;;17.20;1.00;;;;;;5074047;28;20048;-27
2022/09/25 10:34:23;;;;;;;1.95;0.40;;;17.10;1.00;;;;;;5073112;28;20063;-27
2022/09/25 10:36:51;;;;;;;0.68;0.10;;;17.20;98.40;;;;;;5075059;28;20506;-27
2022/09/25 10:39:22;;;;;;;1.50;0.20;;;17.30;41.50;;;;;;5075116;28;20095;-27
2022/09/25 10:41:48;;;;;;;1.40;0.30;;;17.20;1.00;;;;;;5074079;28;20085;-27
2022/09/25 10:44:30;;;;;;;1.42;0.13;;;17.10;1.00;;;;;;5074056;28;20204;-27
2022/09/25 10:52:48;;;;;;;1.65;0.20;;;16.60;65.30;;;;;;5074704;28;20058;-26
2022/09/25 10:55:24;;;;;;;1.52;0.30;;;16.60;93.80;;;;;;5074144;28;20091;-27
2022/09/25 10:58:08;;;;;;;4.63;0.43;;;16.50;77.80;;;;;;5074790;28;20055;-26
2022/09/25 11:00:50;;;;;;;4.13;0.20;;;16.60;28.20;;;;;;5074785;28;20070;-26
2022/09/25 11:03:29;;;;;;;2.58;0.32;;;16.70;99.90;;;;;;5073581;28;20178;-27
2022/09/25 11:06:19;;;;;;;1.63;0.47;;;16.80;95.00;;;;;;5073369;28;20056;-27
2022/09/25 11:08:48;;;;;;;4.22;0.40;;;16.80;98.00;;;;;;5074586;28;20040;-27
2022/09/25 11:11:21;;;;;;;4.03;0.60;;;16.50;1.00;;;;;;5074707;28;20048;-27
2022/09/25 11:13:50;;;;;;;2.88;0.57;;;16.70;85.50;;;;;;5075064;28;20093;-27
2022/09/25 11:16:16;;;;;;;2.92;0.30;;;16.90;41.60;;;;;;5074265;28;20080;-27
2022/09/25 11:19:04;;;;;;;4.20;0.30;;;17.20;88.80;;;;;;5074279;28;20049;-27
2022/09/25 11:21:43;;;;;;;2.25;0.40;;;17.70;99.90;;;;;;5074869;28;20052;-27
2022/09/25 11:24:32;;;;;;;5.88;0.50;;;18.40;99.90;;;;;;5072969;28;20056;-27
2022/09/25 11:27:25;;;;;;;3.90;1.08;;;18.70;99.90;;;;;;5073053;28;20136;-27
2022/09/25 11:30:16;;;;;;;6.15;0.50;;;19.20;99.90;;;;;;5074207;28;20052;-26
2022/09/25 11:33:09;;;;;;;4.40;0.43;;;19.80;99.90;;;;;;5074490;28;20071;-27
2022/09/25 11:35:35;;;;;;;4.63;0.75;;;20.00;99.90;;;;;;5074804;28;20041;-27
2022/09/25 11:41:39;;;;;;;3.30;0.90;;;18.80;99.90;;;;;;5074013;28;20044;-26
2022/09/25 11:44:53;;;;;;;2.97;0.45;;;19.60;99.90;;;;;;5074774;28;20360;-27
2022/09/25 11:47:42;;;;;;;3.67;0.52;;;20.10;99.90;;;;;;5069528;28;20052;-27
2022/09/25 11:50:16;;;;;;;3.63;0.43;;;20.90;99.90;;;;;;5074575;28;20058;-27
2022/09/25 11:52:54;;;;;;;3.63;0.28;;;21.30;99.90;;;;;;5074401;28;20052;-27
2022/09/25 11:55:38;;;;;;;1.73;0.32;;;21.30;99.90;;;;;;5073928;28;20467;-27
2022/09/25 11:58:39;;;;;;;2.22;0.30;;;21.00;5.30;;;;;;5072787;28;20052;-26
2022/09/25 12:01:25;;;;;;;2.75;0.40;;;20.20;31.70;;;;;;5073708;28;20037;-26
2022/09/25 12:04:01;;;;;;;4.20;0.52;;;19.40;99.90;;;;;;5069915;28;20060;-26
2022/09/25 12:06:27;;;;;;;2.65;0.30;;;18.60;99.90;;;;;;5056840;28;20048;-26
2022/09/25 12:09:25;;;;;;;2.58;1.20;;;17.90;1.00;;;;;;5072653;28;20048;-26
2022/09/25 12:12:23;;;;;;;1.08;0.30;;;17.20;1.00;;;;;;5054948;28;20056;-26
2022/09/25 12:15:13;;;;;;;4.63;0.70;;;16.80;1.00;;;;;;5073551;28;20048;-26
2022/09/25 12:17:39;;;;;;;4.72;0.80;;;16.40;68.60;;;;;;5073605;28;20052;-26
2022/09/25 12:20:23;;;;;;;3.53;0.50;;;16.30;99.90;;;;;;5073502;28;20132;-26
2022/09/25 12:22:59;;;;;;;4.53;0.40;;;16.80;99.90;;;;;;5073544;28;20048;-26
2022/09/25 12:25:33;;;;;;;2.85;0.40;;;17.80;98.10;;;;;;5074108;28;20098;-26
2022/09/25 12:28:09;;;;;;;5.95;0.73;;;18.90;1.00;;;;;;5072318;28;20044;-27
2022/09/25 12:31:03;;;;;;;1.77;0.30;;;;;;;;;;5074286;28;20049;-27
2022/09/25 12:33:31;;;;;;;3.13;0.40;;;;;;;;;;5072583;28;20437;-26
2022/09/25 12:36:16;;;;;;;3.00;0.50;;;20.90;99.90;;;;;;5073857;28;20066;-26
2022/09/25 12:38:54;;;;;;;3.35;0.75;;;21.10;99.90;;;;;;5073246;28;20048;-27
2022/09/25 12:41:32;;;;;;;3.05;0.47;;;21.30;99.90;;;;;;5072618;28;20128;-27
2022/09/25 12:44:10;;;;;;;5.60;0.70;;;21.60;99.90;;;;;;5074154;28;20132;-26
2022/09/25 12:46:44;;;;;;;4.70;0.40;;;21.80;56.10;;;;;;5074170;28;20040;-26
2022/09/25 12:49:20;;;;;;;3.53;0.40;;;21.60;34.10;;;;;;5073903;28;20044;-26
2022/09/25 12:51:54;;;;;;;4.03;0.52;;;21.60;34.10;;;;;;5073397;28;20041;-27
2022/09/25 12:54:23;;;;;;;2.88;0.38;;;21.60;27.10;;;;;;5073188;28;20506;-27
2022/09/25 12:57:18;;;;;;;1.83;0.50;;;21.50;1.00;;;;;;5074377;28;20079;-27
2022/09/25 13:00:02;;;;;;;1.65;0.30;;;21.70;1.00;;;;;;5075680;28;20217;-28
2022/09/25 13:02:46;;;;;;;1.88;0.30;;;21.50;1.00;;;;;;5077243;28;20213;-27
2022/09/25 13:05:41;;;;;;;4.43;0.50;;;21.00;1.00;;;;;;5076909;28;20057;-27
2022/09/25 13:08:09;;;;;;;2.33;0.30;;;21.00;1.00;;;;;;5077722;28;20482;-27
2022/09/25 13:10:43;;;;;;;4.50;0.50;;;20.60;1.00;;;;;;5076759;28;20044;-26
2022/09/25 13:13:18;;;;;;;3.35;0.32;;;20.60;27.90;;;;;;5076747;28;20080;-27
2022/09/25 13:15:49;;;;;;;2.63;0.55;;;20.80;1.00;;;;;;5077503;28;20124;-27
2022/09/25 13:18:27;;;;;;;3.63;0.77;;;20.90;6.70;;;;;;5076700;28;20090;-27
2022/09/25 13:20:55;;;;;;;3.28;0.55;;;21.30;1.00;;;;;;5075667;28;20053;-27
2022/09/25 13:23:28;;;;;;;5.72;0.85;;;21.00;1.00;;;;;;5076300;28;20528;-27
2022/09/25 13:26:11;;;;;;;1.83;0.38;;;20.80;1.00;;;;;;5077390;28;20040;-28
2022/09/25 13:28:46;;;;;;;2.03;0.50;;;20.40;1.00;;;;;;5076527;28;20049;-27
2022/09/25 13:31:21;;;;;;;3.53;0.20;;;20.10;99.90;;;;;;5076455;28;20041;-27
2022/09/25 13:33:51;;;;;;;2.60;0.50;;;20.00;1.00;;;;;;5076815;28;20053;-26
2022/09/25 13:36:24;;;;;;;2.85;0.30;;;19.30;1.00;;;;;;5076310;28;20049;-27
2022/09/25 13:42:06;;;;;;;2.47;0.68;;;17.80;99.90;;;;;;5076201;28;20135;-26
2022/09/25 13:44:41;;;;;;;2.90;0.35;;;17.30;99.90;;;;;;5076244;28;20045;-26